WetterOnline ( http://www.wetteronline.de )

Wetter aktuell Lage

Aktuelles Wetter: Bad Salzuflen (139m)

6-stündlich | Neueste Meldungen
Ortszeit Temperatur Wetter
Mi, 17.10. 14:00 22.5° C wolkig
Mi, 17.10. 8:00 10.5° C bewölkt
Mi, 17.10. 2:00 12.7° C wolkig
Di, 16.10. 20:00 17.7° C bedeckt
Di, 16.10. 14:00 19.5° C bedeckt
Di, 16.10. 8:00 12.0° C bedeckt
Di, 16.10. 2:00 11.9° C wolkenlos
Mo, 15.10. 20:00 17.8° C bedeckt
Ortszeit Temperatur Wetter
Mi, 17.10. 17:30 21.1° C bedeckt
Mi, 17.10. 17:20 21.1° C bedeckt
Mi, 17.10. 17:10 21.4° C bedeckt
Mi, 17.10. 17:00 22.2° C bedeckt
Mi, 17.10. 16:50 22.2° C bedeckt
Mi, 17.10. 16:40 22.9° C bewölkt
Mi, 17.10. 16:30 22.7° C bewölkt
Mi, 17.10. 16:00 23.5° C wolkig
Ortszeit Relative Feuchte Sichtweite
Mi, 17.10. 14:00 47% 45 km
Mi, 17.10. 8:00 94% 11 km
Mi, 17.10. 2:00 92% 12 km
Di, 16.10. 20:00 71% 35 km
Di, 16.10. 14:00 57% 27 km
Di, 16.10. 8:00 84% 22 km
Di, 16.10. 2:00 85% 25 km
Mo, 15.10. 20:00 59% 70 km
Ortszeit Relative Feuchte Sichtweite
Mi, 17.10. 17:30 53% 65 km
Mi, 17.10. 17:20 53% -
Mi, 17.10. 17:10 52% -
Mi, 17.10. 17:00 48% 65 km
Mi, 17.10. 16:50 48% -
Mi, 17.10. 16:40 47% -
Mi, 17.10. 16:30 44% 60 km
Mi, 17.10. 16:00 41% 50 km
Ortszeit Niederschlagsmenge Niederschlagsart
Mi, 17.10. 14:00 0.0 l/m2 in 6 Std. -
Mi, 17.10. 8:00 0.0 l/m2 in 12 Std. -
Mi, 17.10. 2:00 0.0 l/m2 in 6 Std. -
Di, 16.10. 20:00 0.1 l/m2 in 12 Std. -
Di, 16.10. 14:00 0.1 l/m2 in 6 Std. Regen
Di, 16.10. 8:00 0.1 l/m2 in 12 Std. Regen
Di, 16.10. 2:00 0.0 l/m2 in 6 Std. -
Mo, 15.10. 20:00 0.0 l/m2 in 12 Std. -
Ortszeit Niederschlagsmenge Niederschlagsart
Mi, 17.10. 17:30 0.0 l/m2 in 1 Std. -
Mi, 17.10. 17:20 keine Meldung -
Mi, 17.10. 17:10 keine Meldung -
Mi, 17.10. 17:00 0.0 l/m2 in 1 Std. -
Mi, 17.10. 16:50 keine Meldung -
Mi, 17.10. 16:40 keine Meldung -
Mi, 17.10. 16:30 0.0 l/m2 in 1 Std. -
Mi, 17.10. 16:00 0.0 l/m2 in 1 Std. -
Ortszeit Stärke Spitze Richtung
km/h Bft. km/h Grad Sektor
Mi, 17.10. 14:00 4 1 14 200° S
Mi, 17.10. 8:00 4 1 7 330° NW
Mi, 17.10. 2:00 0 0 7 - -
Di, 16.10. 20:00 0 0 14 - -
Di, 16.10. 14:00 4 1 7 200° S
Di, 16.10. 8:00 0 0 7 - -
Di, 16.10. 2:00 0 0 7 - -
Mo, 15.10. 20:00 4 1 22 10° N
Ortszeit Stärke Spitze Richtung
km/h Bft. km/h Grad Sektor
Mi, 17.10. 17:30 4 1 7 330° NW
Mi, 17.10. 17:20 4 1 - 330° NW
Mi, 17.10. 17:10 4 1 - 320° NW
Mi, 17.10. 17:00 4 1 11 330° NW
Mi, 17.10. 16:50 4 1 - 330° NW
Mi, 17.10. 16:40 4 1 - 250° W
Mi, 17.10. 16:30 4 1 11 190° S
Mi, 17.10. 16:00 4 1 11 200° S
Ortszeit Untergrenze Bedeckung Gattung
total tief tief mittel hoch
Mi, 17.10. 14:00 6000 m 8/8 8/8 - - -
Mi, 17.10. 8:00 4200 m 8/8 7/8 - - -
Mi, 17.10. 2:00 3300 m 6/8 4/8 - - -
Di, 16.10. 20:00 3600 m 8/8 8/8 - - -
Di, 16.10. 14:00 3000 m 8/8 8/8 - - -
Di, 16.10. 8:00 3600 m 8/8 8/8 - - -
Di, 16.10. 2:00 - 0/8 0/8 - - -
Mo, 15.10. 20:00 3900 m 8/8 8/8 - - -
Ortszeit Bedeckungsgrad in Achtel und Wolkenuntergrenze
Mi, 17.10. 17:30 7(5400m) 8(6000m) 8(7200m)
Mi, 17.10. 17:20 7(5400m) 8(6000m) 8(7200m)
Mi, 17.10. 17:10 8(5400m) 8(6000m) 8(7200m)
Mi, 17.10. 17:00 4(5400m) 8(6000m) 8(7200m)
Mi, 17.10. 16:50 4(5400m) 8(6000m) 8(7200m)
Mi, 17.10. 16:40 7(6000m) 8(7500m) 8(8400m)
Mi, 17.10. 16:30 7(6000m) 8(7200m) 8(8400m)
Mi, 17.10. 16:00 5(5700m) 8(6300m) 8(6900m)
Ortszeit Luftdruck NN (hPa) Tendenz (hPa in 3 Std.)
Mi, 17.10. 14:00 1019 - 0,6
Mi, 17.10. 8:00 1019 + 0,2
Mi, 17.10. 2:00 1020 - 0,3
Di, 16.10. 20:00 1020 + 0,4
Di, 16.10. 14:00 1019 + 0,1
Di, 16.10. 8:00 1018 + 0,8
Di, 16.10. 2:00 1016 + 0,5
Mo, 15.10. 20:00 1015 + 1,4
Ortszeit Luftdruck NN (hPa) Tendenz (hPa in 3 Std.)
Mi, 17.10. 17:30 1018 - 0,3
Mi, 17.10. 17:20 1018 keine Meldung
Mi, 17.10. 17:10 1018 keine Meldung
Mi, 17.10. 17:00 1018 - 0,6
Mi, 17.10. 16:50 1018 keine Meldung
Mi, 17.10. 16:40 1018 keine Meldung
Mi, 17.10. 16:30 1018 - 0,8
Mi, 17.10. 16:00 1018 - 1,0
Ortszeit Schneehöhe (cm)
Mi, 17.10. 14:00 0
Mi, 17.10. 8:00 0
Mi, 17.10. 2:00 0
Di, 16.10. 20:00 0
Di, 16.10. 14:00 0
Di, 16.10. 8:00 0
Di, 16.10. 2:00 0
Mo, 15.10. 20:00 0
Ortszeit Schneehöhe (cm)
Mi, 17.10. 17:30 0
Mi, 17.10. 17:20 0
Mi, 17.10. 17:10 0
Mi, 17.10. 17:00 0
Mi, 17.10. 16:50 0
Mi, 17.10. 16:40 0
Mi, 17.10. 16:30 0
Mi, 17.10. 16:00 0
Link zu dieser Seite / Seite empfehlen

Das Wetter in ...